VAM | Vabird-VBD

Virtual Vabird! Aerolínea Virtual de habla hispana, desde 2011




 INFORMACIÓN METAR y TAF
METAR FOR LEVX
ADDS - METARS form results

(1306 UTC 12 April 2021)
Data provider http://aviationweather.gov/metar/data/
 
METAR text: LEVX 121300Z VRB01KT CAVOK 17/08 Q1022 NOSIG
Conditions at: LEVX (VIGO/PEINADOR , ES) observed 1300 UTC 12 April 2021
Temperature: 17.0°C (63°F)
Dewpoint: 8.0°C (46°F) [RH = 55%]
Pressure (altimeter): 30.18 inches Hg (1022.0 mb)
Winds: variable direction winds at 1 MPH (1 knots; 0.5 m/s)
Visibility: 6 or more miles (10+ km)
Ceiling: ceiling and visibility are OK
Clouds: unknown
Weather: no significant weather observed at this time

METAR text: LEVX 121230Z VRB02KT CAVOK 17/09 Q1022 NOSIG
Conditions at: LEVX (VIGO/PEINADOR , ES) observed 1230 UTC 12 April 2021
Temperature: 17.0°C (63°F)
Dewpoint: 9.0°C (48°F) [RH = 59%]
Pressure (altimeter): 30.18 inches Hg (1022.0 mb)
Winds: variable direction winds at 2 MPH (2 knots; 1.0 m/s)
Visibility: 6 or more miles (10+ km)
Ceiling: ceiling and visibility are OK
Clouds: unknown
Weather: no significant weather observed at this time

Forecast for: LEVX (VIGO/PEINADOR , ES)
Text: TAF LEVX 121100Z 1212/1312 22007KT CAVOK TX18/1214Z TN11/1305Z
Forecast period: 1200 UTC 12 April 2021 to 1200 UTC 13 April 2021
Forecast type: FROM: standard forecast or significant change
Winds: from the SW (220 degrees) at 8 MPH (7 knots; 3.6 m/s)
Visibility: 6 or more miles (10+ km)
Ceiling: unknown
Clouds: missing
Weather: no significant weather forecast for this period

 MAPA DE AEROPUERTO

 INFORMACIÓN DE PISTA